Time;durP1;ratioP1;P1;durP2;ratioP2;P2;SDS_P1;SDS_P2;PMS_P1;PMS_P2;Temp;Humidity;BMP_temperature;BMP_pressure;BME280_temperature;BME280_humidity;BME280_pressure;Samples;Min_cycle;Max_cycle;Signal;HPM_P1;HPM_P2
2023/04/26 01:31:01;;;;;;;21.73;19.97;;;7.70;99.90;;;;;;5593232;23;21167;-77
2023/04/26 01:33:27;;;;;;;20.90;19.30;;;7.50;99.90;;;;;;4990511;28;20479;-76
2023/04/26 01:35:54;;;;;;;18.73;17.63;;;7.50;99.90;;;;;;4990511;28;20512;-74
2023/04/26 01:38:21;;;;;;;18.83;17.70;;;7.50;99.90;;;;;;4990701;28;20939;-76
2023/04/26 01:40:47;;;;;;;19.80;18.40;;;7.40;99.90;;;;;;4990592;28;20450;-76
2023/04/26 01:43:14;;;;;;;19.70;18.27;;;7.40;99.90;;;;;;4990507;28;20459;-76
2023/04/26 01:45:41;;;;;;;19.20;17.87;;;7.30;99.90;;;;;;4990400;28;20831;-76
2023/04/26 01:48:09;;;;;;;18.17;16.90;;;7.30;99.90;;;;;;4993619;28;20497;-76
2023/04/26 01:50:35;;;;;;;23.77;22.10;;;7.30;99.90;;;;;;4994597;28;20461;-75
2023/04/26 01:53:02;;;;;;;20.03;18.63;;;7.30;99.90;;;;;;4994465;28;20513;-75
2023/04/26 01:55:29;;;;;;;21.63;19.70;;;7.20;99.90;;;;;;4994491;28;20462;-75
2023/04/26 01:57:56;;;;;;;19.93;18.23;;;7.20;99.90;;;;;;4994328;28;20454;-75
2023/04/26 02:00:23;;;;;;;18.97;17.20;;;7.10;99.90;;;;;;4994266;28;20458;-75
2023/04/26 02:02:49;;;;;;;20.13;18.50;;;7.00;99.90;;;;;;4994347;28;20507;-74
2023/04/26 02:05:17;;;;;;;21.67;20.07;;;6.90;99.90;;;;;;4994098;28;20986;-77
2023/04/26 02:07:44;;;;;;;20.93;19.53;;;6.80;99.90;;;;;;4994154;28;20532;-76
2023/04/26 02:10:11;;;;;;;21.37;20.00;;;6.80;99.90;;;;;;4994051;28;20457;-76
2023/04/26 02:12:37;;;;;;;21.30;19.83;;;6.80;99.90;;;;;;4994239;28;20894;-76
2023/04/26 02:15:05;;;;;;;21.30;19.67;;;6.70;99.90;;;;;;4994092;28;20820;-75
2023/04/26 02:17:32;;;;;;;20.63;18.70;;;6.70;99.90;;;;;;4994029;28;20813;-75
2023/04/26 02:19:59;;;;;;;20.73;19.03;;;6.60;99.90;;;;;;4994026;28;20458;-75
2023/04/26 02:22:28;;;;;;;20.97;19.67;;;6.60;99.90;;;;;;4993858;28;20458;-75
2023/04/26 02:24:55;;;;;;;20.53;19.00;;;6.70;99.90;;;;;;4993912;28;20454;-75
2023/04/26 02:27:21;;;;;;;20.27;18.87;;;6.70;99.90;;;;;;4993969;28;20462;-75
2023/04/26 02:29:48;;;;;;;24.17;22.47;;;6.60;99.90;;;;;;4984564;28;20945;-75
2023/04/26 02:32:15;;;;;;;24.40;22.07;;;6.60;99.90;;;;;;4974102;28;21138;-75
2023/04/26 02:34:42;;;;;;;22.07;20.40;;;6.50;99.90;;;;;;4974267;28;20248;-75
2023/04/26 02:37:09;;;;;;;23.30;21.70;;;6.50;99.90;;;;;;4974238;28;20452;-75
2023/04/26 02:39:37;;;;;;;23.37;21.67;;;6.50;99.90;;;;;;4974499;28;20454;-77
2023/04/26 02:42:04;;;;;;;23.60;22.00;;;6.40;99.90;;;;;;4974285;28;20481;-76
2023/04/26 02:44:31;;;;;;;23.77;22.03;;;6.40;99.90;;;;;;4974045;28;20455;-76
2023/04/26 02:46:57;;;;;;;23.83;21.93;;;6.30;99.90;;;;;;4974128;28;20460;-75
2023/04/26 02:49:24;;;;;;;23.10;21.40;;;6.20;99.90;;;;;;4974009;28;20936;-76
2023/04/26 02:51:51;;;;;;;24.43;21.83;;;6.10;99.90;;;;;;4974233;28;20462;-76
2023/04/26 02:54:17;;;;;;;24.17;22.27;;;6.10;99.90;;;;;;4973788;28;20517;-76
2023/04/26 02:56:45;;;;;;;25.00;22.53;;;6.10;99.90;;;;;;4973779;28;20988;-75
2023/04/26 02:59:12;;;;;;;23.83;22.10;;;6.20;99.90;;;;;;4973059;28;20463;-75
2023/04/26 03:01:39;;;;;;;24.47;22.77;;;6.10;99.90;;;;;;4973728;28;20510;-75
2023/04/26 03:04:05;;;;;;;25.03;23.20;;;6.00;99.90;;;;;;4973986;28;20455;-76
2023/04/26 03:06:32;;;;;;;25.30;23.27;;;6.00;99.90;;;;;;4973624;28;20462;-76
2023/04/26 03:08:59;;;;;;;23.83;22.20;;;6.00;99.90;;;;;;4973588;28;21110;-76
2023/04/26 03:11:26;;;;;;;26.60;24.40;;;6.00;99.90;;;;;;4973603;28;20458;-76
2023/04/26 03:13:54;;;;;;;25.20;23.30;;;6.20;99.90;;;;;;4973663;28;20495;-76
2023/04/26 03:16:21;;;;;;;24.53;22.63;;;6.20;99.90;;;;;;4973699;28;20462;-76
2023/04/26 03:18:48;;;;;;;26.43;24.13;;;6.10;99.90;;;;;;4973477;28;20462;-76
2023/04/26 03:21:15;;;;;;;25.07;22.77;;;6.10;99.90;;;;;;4973409;28;20474;-76
2023/04/26 03:23:42;;;;;;;25.03;22.50;;;6.10;99.90;;;;;;4973428;28;20462;-77
2023/04/26 03:26:08;;;;;;;24.87;22.87;;;6.10;99.90;;;;;;4973677;28;20458;-76
2023/04/26 03:28:35;;;;;;;26.60;24.17;;;6.00;99.90;;;;;;4973472;28;21042;-76
2023/04/26 03:31:03;;;;;;;25.50;23.57;;;6.10;99.90;;;;;;4973002;28;20489;-76
2023/04/26 03:33:30;;;;;;;25.77;23.53;;;6.10;99.90;;;;;;4973207;28;20497;-76
2023/04/26 03:35:57;;;;;;;26.77;24.57;;;6.00;99.90;;;;;;4973125;28;20459;-76
2023/04/26 03:38:24;;;;;;;26.00;23.90;;;6.10;99.90;;;;;;4973131;28;20510;-75
2023/04/26 03:40:50;;;;;;;25.40;22.93;;;6.10;99.90;;;;;;4973360;28;20459;-76
2023/04/26 03:43:17;;;;;;;24.17;22.27;;;6.00;99.90;;;;;;4972960;28;20503;-76
2023/04/26 03:45:47;;;;;;;24.00;22.40;;;5.90;99.90;;;;;;4972786;28;20462;-76
2023/04/26 03:48:16;;;;;;;26.67;24.67;;;5.80;99.90;;;;;;4973093;28;20806;-76
2023/04/26 03:50:43;;;;;;;24.57;22.50;;;5.90;99.90;;;;;;4972732;28;20880;-75
2023/04/26 03:53:10;;;;;;;25.43;23.70;;;5.70;99.90;;;;;;4972783;28;20549;-75
2023/04/26 03:55:37;;;;;;;24.53;22.43;;;5.70;99.90;;;;;;4973089;28;20456;-74
2023/04/26 03:58:06;;;;;;;25.40;23.10;;;5.50;99.90;;;;;;4972813;28;20510;-74
2023/04/26 04:00:33;;;;;;;24.13;22.20;;;5.50;99.90;;;;;;4972672;28;20810;-76
2023/04/26 04:03:00;;;;;;;24.43;22.40;;;5.40;99.90;;;;;;4972494;28;21222;-76
2023/04/26 04:05:28;;;;;;;25.27;23.27;;;5.30;99.90;;;;;;4972421;28;20451;-76
2023/04/26 04:07:55;;;;;;;24.50;22.73;;;5.20;99.90;;;;;;4972508;28;20450;-76
2023/04/26 04:10:22;;;;;;;24.97;22.83;;;5.00;99.90;;;;;;4971699;28;20466;-76
2023/04/26 04:12:49;;;;;;;25.60;23.60;;;4.90;99.90;;;;;;4972375;28;20544;-76
2023/04/26 04:15:17;;;;;;;25.87;23.97;;;4.80;99.90;;;;;;4972130;28;20452;-76
2023/04/26 04:17:44;;;;;;;25.93;23.73;;;4.80;99.90;;;;;;4972157;28;20452;-76
2023/04/26 04:20:12;;;;;;;26.60;24.57;;;4.70;99.90;;;;;;4972194;28;20497;-76
2023/04/26 04:22:40;;;;;;;28.83;26.30;;;4.70;99.90;;;;;;4972381;28;20805;-76
2023/04/26 04:25:09;;;;;;;26.27;24.10;;;4.60;99.90;;;;;;4972394;28;20507;-76
2023/04/26 04:27:36;;;;;;;25.77;23.70;;;4.60;99.90;;;;;;4972281;28;20461;-75
2023/04/26 04:30:06;;;;;;;26.40;24.40;;;4.60;99.90;;;;;;4971880;28;20481;-76
2023/04/26 04:32:33;;;;;;;26.17;23.80;;;4.60;99.90;;;;;;4972006;28;20483;-75
2023/04/26 04:35:00;;;;;;;29.50;26.40;;;4.50;99.90;;;;;;4971877;28;20496;-75
2023/04/26 04:37:27;;;;;;;26.37;24.20;;;4.60;99.90;;;;;;4971925;28;20521;-75
2023/04/26 04:39:55;;;;;;;25.80;23.60;;;4.60;99.90;;;;;;4972097;28;20661;-76
2023/04/26 04:42:22;;;;;;;28.13;25.60;;;4.70;99.90;;;;;;4972239;28;20571;-76
2023/04/26 04:44:49;;;;;;;26.10;24.33;;;4.80;99.90;;;;;;4971854;28;20515;-75
2023/04/26 04:47:16;;;;;;;27.13;24.67;;;4.90;99.90;;;;;;4971730;28;20458;-74
2023/04/26 04:49:43;;;;;;;26.37;24.00;;;4.80;99.90;;;;;;4971127;28;20533;-75
2023/04/26 04:52:10;;;;;;;30.50;28.00;;;5.00;99.90;;;;;;4971450;28;20448;-75
2023/04/26 04:54:37;;;;;;;30.07;27.47;;;5.10;99.90;;;;;;4971757;28;20494;-74
2023/04/26 04:57:05;;;;;;;27.70;25.20;;;5.20;99.90;;;;;;4971808;28;20512;-75
2023/04/26 04:59:32;;;;;;;29.70;26.70;;;5.30;99.90;;;;;;4971536;28;20462;-74
2023/04/26 05:01:58;;;;;;;28.47;25.80;;;5.30;99.90;;;;;;4965991;28;20490;-75
2023/04/26 05:04:25;;;;;;;29.57;26.97;;;5.50;99.90;;;;;;4971495;28;20457;-75
2023/04/26 05:06:52;;;;;;;30.70;27.53;;;5.60;99.90;;;;;;4971164;28;20458;-75
2023/04/26 05:09:19;;;;;;;28.27;25.63;;;5.80;99.90;;;;;;4971189;28;20455;-76
2023/04/26 05:11:45;;;;;;;28.70;25.90;;;5.90;99.90;;;;;;4971443;28;20463;-75
2023/04/26 05:14:13;;;;;;;26.90;24.80;;;6.30;99.90;;;;;;4971216;28;20491;-74
2023/04/26 05:16:40;;;;;;;29.00;25.90;;;6.80;99.90;;;;;;4971281;28;20551;-74
2023/04/26 05:19:07;;;;;;;24.07;22.10;;;7.20;99.90;;;;;;4971552;28;20454;-74
2023/04/26 05:21:33;;;;;;;23.10;21.30;;;7.60;99.90;;;;;;4971003;28;20459;-74
2023/04/26 05:24:00;;;;;;;22.10;20.23;;;7.70;99.90;;;;;;4971157;28;20468;-74
2023/04/26 05:26:27;;;;;;;22.90;20.53;;;7.80;99.90;;;;;;4971124;28;20950;-75
2023/04/26 05:28:53;;;;;;;21.97;20.23;;;7.90;99.90;;;;;;4971188;28;20818;-75
2023/04/26 05:31:21;;;;;;;21.13;19.33;;;8.10;99.90;;;;;;4970858;28;20842;-75
2023/04/26 05:33:49;;;;;;;23.30;20.83;;;8.50;99.90;;;;;;4971167;28;20487;-75
2023/04/26 05:36:16;;;;;;;23.37;20.93;;;8.90;99.90;;;;;;4971015;28;20464;-76
2023/04/26 05:38:42;;;;;;;22.03;20.10;;;9.20;99.90;;;;;;4971111;28;20606;-75
2023/04/26 05:41:09;;;;;;;22.53;20.63;;;9.20;99.90;;;;;;4970706;28;20517;-76
2023/04/26 05:43:36;;;;;;;21.97;19.97;;;9.50;99.90;;;;;;4971220;28;20459;-75
2023/04/26 05:46:03;;;;;;;22.30;20.60;;;9.90;99.90;;;;;;4971052;28;20868;-75
2023/04/26 05:48:31;;;;;;;20.27;18.67;;;10.40;99.90;;;;;;4971095;28;20700;-76
2023/04/26 05:50:58;;;;;;;20.50;18.90;;;10.90;99.90;;;;;;4970728;28;20462;-76
2023/04/26 05:53:24;;;;;;;22.40;20.60;;;11.30;99.90;;;;;;4970944;28;20866;-77
2023/04/26 05:55:51;;;;;;;21.10;19.50;;;11.70;99.90;;;;;;4971013;28;20456;-76
2023/04/26 05:58:18;;;;;;;20.10;18.33;;;12.10;99.90;;;;;;4970755;28;20448;-76
2023/04/26 06:00:44;;;;;;;19.43;17.87;;;12.40;99.90;;;;;;4967928;28;20455;-76
2023/04/26 06:03:11;;;;;;;20.80;17.83;;;12.70;99.90;;;;;;4970841;28;20459;-71
2023/04/26 06:05:40;;;;;;;21.10;19.20;;;12.90;99.90;;;;;;4970884;28;20821;-76
2023/04/26 06:08:07;;;;;;;21.87;19.83;;;13.50;99.90;;;;;;4968305;28;20460;-73
2023/04/26 06:10:35;;;;;;;22.40;20.30;;;13.40;99.90;;;;;;4970158;28;20459;-80
2023/04/26 06:13:01;;;;;;;21.90;20.10;;;13.40;99.90;;;;;;4967625;28;20483;-79
2023/04/26 06:15:28;;;;;;;19.90;18.17;;;13.80;99.90;;;;;;4970307;28;20541;-81
2023/04/26 06:17:55;;;;;;;19.80;18.27;;;14.30;99.90;;;;;;4970460;28;20452;-81
2023/04/26 06:20:22;;;;;;;21.80;20.03;;;14.70;99.90;;;;;;4970646;28;20448;-80
2023/04/26 06:22:50;;;;;;;23.20;21.37;;;14.90;99.30;;;;;;4970611;28;20545;-84
2023/04/26 06:25:17;;;;;;;20.93;19.43;;;15.10;98.80;;;;;;4970623;28;20506;-84
2023/04/26 06:27:43;;;;;;;20.03;18.53;;;15.10;98.90;;;;;;4971411;28;20451;-83
2023/04/26 06:30:11;;;;;;;18.30;16.90;;;15.20;96.70;;;;;;4971555;28;20550;-82
2023/04/26 06:32:39;;;;;;;20.93;19.57;;;15.30;97.80;;;;;;4970830;28;20555;-81
2023/04/26 06:35:06;;;;;;;21.00;19.77;;;15.30;96.80;;;;;;4973203;28;20857;-81
2023/04/26 06:37:33;;;;;;;20.13;18.53;;;15.30;96.40;;;;;;4972082;28;20880;-82
2023/04/26 06:40:01;;;;;;;21.20;19.47;;;15.80;95.60;;;;;;4973734;28;20904;-83
2023/04/26 06:42:28;;;;;;;18.33;16.93;;;16.20;95.80;;;;;;4973323;28;20703;-80
2023/04/26 06:44:55;;;;;;;20.60;19.00;;;16.40;93.20;;;;;;4973465;28;20455;-83
2023/04/26 06:47:22;;;;;;;18.80;17.40;;;16.10;92.80;;;;;;4974442;28;20522;-82
2023/04/26 06:49:48;;;;;;;19.60;18.17;;;16.00;93.00;;;;;;4973553;28;20502;-83
2023/04/26 06:52:15;;;;;;;19.37;17.77;;;15.30;93.80;;;;;;4971732;28;20483;-84
2023/04/26 06:54:42;;;;;;;20.13;18.57;;;15.30;94.70;;;;;;4973476;28;20578;-82
2023/04/26 06:57:10;;;;;;;19.77;18.27;;;15.70;94.20;;;;;;4973687;28;20502;-81
2023/04/26 06:59:37;;;;;;;18.20;17.00;;;16.40;92.70;;;;;;4973893;28;20456;-82
2023/04/26 07:02:03;;;;;;;18.30;17.20;;;16.90;91.10;;;;;;4973654;28;20459;-80
2023/04/26 07:04:30;;;;;;;17.17;16.00;;;17.50;90.10;;;;;;4973406;28;20458;-81
2023/04/26 07:06:57;;;;;;;18.93;17.63;;;18.00;86.60;;;;;;4973182;28;20866;-80
2023/04/26 07:09:23;;;;;;;18.70;17.30;;;18.30;84.20;;;;;;4973588;28;20448;-81
2023/04/26 07:11:50;;;;;;;18.23;17.00;;;17.90;84.70;;;;;;4974407;28;20451;-81
2023/04/26 07:14:18;;;;;;;17.57;16.60;;;18.00;83.00;;;;;;4980384;28;21010;-80
2023/04/26 07:16:45;;;;;;;18.53;17.13;;;18.40;80.50;;;;;;4996360;28;20482;-77
2023/04/26 07:19:11;;;;;;;16.97;15.87;;;18.50;78.60;;;;;;4994512;28;20431;-78
2023/04/26 07:21:38;;;;;;;17.07;15.87;;;18.80;75.10;;;;;;4994682;28;20475;-78
2023/04/26 07:24:07;;;;;;;18.70;17.13;;;18.90;73.00;;;;;;4995184;28;20495;-79
2023/04/26 07:26:35;;;;;;;15.73;14.77;;;18.80;73.20;;;;;;4983652;28;20454;-79
2023/04/26 07:29:02;;;;;;;15.83;14.83;;;18.30;70.30;;;;;;4973843;28;21068;-78
2023/04/26 07:31:31;;;;;;;14.73;13.93;;;18.60;71.70;;;;;;4972264;28;20495;-79
2023/04/26 07:33:58;;;;;;;15.97;14.97;;;18.90;70.40;;;;;;4983332;28;20487;-79
2023/04/26 07:36:26;;;;;;;15.93;14.63;;;19.00;69.70;;;;;;4978543;28;20459;-80
2023/04/26 07:38:53;;;;;;;15.30;14.17;;;19.00;67.10;;;;;;4992138;28;20470;-82
2023/04/26 07:41:20;;;;;;;14.87;14.10;;;18.40;67.00;;;;;;4981013;28;20490;-82
2023/04/26 07:43:46;;;;;;;16.30;15.17;;;17.60;69.90;;;;;;4972760;28;20969;-81
2023/04/26 07:46:13;;;;;;;15.93;14.80;;;17.90;71.10;;;;;;4972665;28;20451;-82
2023/04/26 07:48:41;;;;;;;15.33;14.43;;;18.30;71.90;;;;;;4974432;28;20455;-82
2023/04/26 07:51:08;;;;;;;14.50;13.60;;;18.80;68.30;;;;;;4992463;28;20940;-81
2023/04/26 07:53:35;;;;;;;15.00;14.00;;;18.90;65.90;;;;;;4992640;28;20533;-82
2023/04/26 07:56:04;;;;;;;16.73;15.30;;;19.10;64.70;;;;;;4991827;28;20487;-83
2023/04/26 07:58:31;;;;;;;15.10;14.23;;;20.00;64.50;;;;;;4992190;28;20493;-82
2023/04/26 08:00:58;;;;;;;15.73;14.60;;;19.90;64.50;;;;;;4992103;28;20455;-82
2023/04/26 08:03:26;;;;;;;13.57;12.87;;;20.20;62.80;;;;;;4991584;28;20948;-81
2023/04/26 08:05:54;;;;;;;14.20;13.40;;;19.60;61.30;;;;;;4989376;28;20488;-81
2023/04/26 08:08:21;;;;;;;14.97;13.87;;;20.10;60.70;;;;;;4972881;28;20514;-82
2023/04/26 08:10:48;;;;;;;13.97;13.20;;;19.70;59.30;;;;;;4971753;28;20507;-82
2023/04/26 08:13:15;;;;;;;13.67;12.80;;;19.70;61.40;;;;;;4971609;28;20522;-82
2023/04/26 08:15:42;;;;;;;14.80;13.60;;;19.80;59.10;;;;;;4972029;28;20889;-82
2023/04/26 08:18:09;;;;;;;14.90;13.97;;;20.10;59.50;;;;;;4972138;28;20483;-82
2023/04/26 08:20:35;;;;;;;14.17;13.33;;;20.10;57.40;;;;;;4972188;28;20455;-81
2023/04/26 08:23:03;;;;;;;15.33;13.93;;;19.80;58.20;;;;;;4972159;28;20456;-80
2023/04/26 08:25:30;;;;;;;13.60;12.90;;;19.70;56.80;;;;;;4972402;28;20444;-83
2023/04/26 08:27:57;;;;;;;14.40;13.23;;;19.30;57.50;;;;;;4972188;28;20846;-81
2023/04/26 08:30:23;;;;;;;15.80;14.80;;;18.30;59.60;;;;;;4971757;28;20945;-82
2023/04/26 08:32:50;;;;;;;14.90;14.17;;;18.60;59.50;;;;;;4972334;28;20462;-80
2023/04/26 08:35:17;;;;;;;13.73;12.97;;;19.30;58.80;;;;;;4972033;28;20502;-82
2023/04/26 08:37:44;;;;;;;14.37;13.63;;;20.80;57.40;;;;;;4972108;28;20914;-82
2023/04/26 08:40:12;;;;;;;15.17;14.37;;;22.00;55.50;;;;;;4975774;28;20446;-82
2023/04/26 08:42:42;;;;;;;15.63;14.73;;;22.90;53.40;;;;;;4991106;28;20455;-81
2023/04/26 08:45:11;;;;;;;14.70;14.00;;;23.60;51.80;;;;;;4990967;28;20443;-80
2023/04/26 08:47:43;;;;;;;14.57;13.83;;;24.00;51.50;;;;;;4991176;28;20451;-81
2023/04/26 08:50:13;;;;;;;14.70;13.93;;;22.30;51.70;;;;;;4990742;28;20459;-80
2023/04/26 08:52:41;;;;;;;15.53;14.70;;;22.50;52.60;;;;;;4990900;28;20462;-82
2023/04/26 08:55:09;;;;;;;16.03;15.20;;;22.70;52.10;;;;;;4991031;28;20501;-82
2023/04/26 08:57:39;;;;;;;14.50;13.70;;;22.00;51.10;;;;;;4990809;28;20558;-79
2023/04/26 09:00:09;;;;;;;14.67;13.67;;;21.40;52.60;;;;;;4991239;28;20498;-83
2023/04/26 09:02:36;;;;;;;16.47;15.53;;;19.70;53.80;;;;;;4991132;28;20964;-82
2023/04/26 09:05:05;;;;;;;16.00;14.80;;;18.10;56.10;;;;;;4990880;28;20473;-82
2023/04/26 09:07:35;;;;;;;13.90;13.00;;;17.90;58.20;;;;;;4985690;28;20573;-82
2023/04/26 09:10:05;;;;;;;15.63;14.63;;;17.60;59.90;;;;;;4990427;28;20451;-82
2023/04/26 09:12:32;;;;;;;15.20;14.23;;;17.00;59.80;;;;;;4990331;28;20457;-82
2023/04/26 09:15:00;;;;;;;14.77;14.00;;;17.30;62.80;;;;;;4990137;28;20486;-83
2023/04/26 09:17:28;;;;;;;15.67;14.43;;;17.00;60.30;;;;;;4990446;28;20454;-82
2023/04/26 09:19:55;;;;;;;14.07;13.30;;;16.70;62.00;;;;;;4990563;28;20466;-82
2023/04/26 09:22:29;;;;;;;14.57;13.70;;;16.40;61.60;;;;;;4990790;28;20549;-83
2023/04/26 09:24:56;;;;;;;14.03;13.23;;;15.90;63.50;;;;;;4990717;28;20802;-84
2023/04/26 09:27:31;;;;;;;15.50;14.00;;;15.40;64.00;;;;;;4991079;28;20501;-84
2023/04/26 09:30:04;;;;;;;14.07;13.27;;;15.60;65.10;;;;;;4977208;28;20584;-83
2023/04/26 09:32:47;;;;;;;15.33;14.33;;;15.80;65.10;;;;;;4969739;28;20447;-83
2023/04/26 09:35:22;;;;;;;15.33;14.33;;;16.20;64.70;;;;;;4971227;28;20487;-85
2023/04/26 09:37:53;;;;;;;14.17;13.37;;;16.60;62.30;;;;;;4971677;28;20517;-85
2023/04/26 09:40:21;;;;;;;15.63;14.17;;;16.40;62.90;;;;;;4971760;28;20941;-82
2023/04/26 09:42:57;;;;;;;15.70;14.83;;;17.00;63.80;;;;;;4963327;28;20460;-83
2023/04/26 09:45:25;;;;;;;15.50;14.50;;;16.40;62.90;;;;;;4970186;28;20501;-84
2023/04/26 09:47:52;;;;;;;15.23;14.20;;;16.40;64.00;;;;;;4992337;28;20453;-85
2023/04/26 09:50:30;;;;;;;14.50;13.60;;;16.40;64.00;;;;;;4983148;28;20451;-84
2023/04/26 09:52:57;;;;;;;15.13;14.07;;;17.30;64.60;;;;;;4975334;28;20448;-84
2023/04/26 09:55:28;;;;;;;14.43;13.53;;;18.20;62.30;;;;;;4971812;28;20494;-83
2023/04/26 09:57:55;;;;;;;14.87;13.87;;;18.40;61.00;;;;;;4972877;28;20487;-82
2023/04/26 10:00:24;;;;;;;14.00;13.30;;;18.70;58.90;;;;;;4991602;28;20455;-83
2023/04/26 10:02:54;;;;;;;16.63;15.10;;;17.90;59.00;;;;;;4991213;28;20458;-77
2023/04/26 10:05:21;;;;;;;13.80;13.10;;;18.00;58.80;;;;;;4976977;28;20815;-74
2023/04/26 10:07:50;;;;;;;14.10;13.00;;;18.00;59.50;;;;;;4966407;28;20482;-75
2023/04/26 10:10:18;;;;;;;13.13;12.43;;;17.50;59.70;;;;;;4974953;28;20458;-75
2023/04/26 10:12:45;;;;;;;13.73;12.93;;;17.10;62.30;;;;;;4974634;28;20447;-75
2023/04/26 10:15:12;;;;;;;15.03;13.60;;;17.00;62.60;;;;;;4976698;28;20495;-75
2023/04/26 10:17:39;;;;;;;15.60;14.57;;;16.90;61.30;;;;;;4993537;28;20447;-74
2023/04/26 10:20:12;;;;;;;15.23;14.13;;;16.70;61.70;;;;;;4994272;28;20446;-75
2023/04/26 10:22:44;;;;;;;14.77;13.57;;;16.50;62.40;;;;;;4994030;28;20466;-76
2023/04/26 10:25:11;;;;;;;14.13;13.27;;;16.30;63.70;;;;;;4994923;28;20493;-76
2023/04/26 10:27:48;;;;;;;14.77;13.87;;;16.50;63.50;;;;;;5000250;28;20455;-75
2023/04/26 10:30:15;;;;;;;13.33;12.43;;;17.30;61.90;;;;;;4993655;28;20485;-75
2023/04/26 10:33:16;;;;;;;14.07;13.23;;;18.90;60.30;;;;;;4993124;28;20470;-75
2023/04/26 11:35:24;;;;;;;15.47;14.63;;;20.90;50.80;;;;;;5332374;23;20858;-73
2023/04/26 11:37:51;;;;;;;14.83;13.90;;;20.80;51.50;;;;;;4971354;28;20538;-72
2023/04/26 11:40:19;;;;;;;13.43;12.80;;;20.70;50.80;;;;;;4971146;28;20448;-73
2023/04/26 11:42:45;;;;;;;14.37;13.57;;;21.20;50.50;;;;;;4970926;28;20823;-72
2023/04/26 11:45:15;;;;;;;14.40;13.70;;;20.70;49.70;;;;;;4970833;28;20819;-73
2023/04/26 11:47:42;;;;;;;14.33;13.50;;;20.10;51.40;;;;;;4970857;28;20531;-74
2023/04/26 11:50:10;;;;;;;15.30;14.30;;;20.10;51.90;;;;;;4970732;28;20452;-72
2023/04/26 11:52:38;;;;;;;14.40;13.70;;;20.70;50.70;;;;;;4970600;28;20459;-73
2023/04/26 11:55:06;;;;;;;14.73;13.93;;;21.70;50.60;;;;;;4970866;28;20880;-73
2023/04/26 11:57:34;;;;;;;14.77;14.17;;;21.80;48.80;;;;;;4970762;28;20502;-73
2023/04/26 12:00:13;;;;;;;16.90;15.80;;;22.30;48.40;;;;;;4971681;28;20452;-73
2023/04/26 12:02:40;;;;;;;15.60;14.53;;;23.50;47.10;;;;;;4966085;28;20460;-74
2023/04/26 12:05:08;;;;;;;16.73;15.60;;;23.50;46.20;;;;;;4970300;28;20515;-74
2023/04/26 12:07:37;;;;;;;15.47;14.57;;;23.70;45.90;;;;;;4971205;28;20502;-73
2023/04/26 12:10:18;;;;;;;15.53;14.37;;;22.90;47.20;;;;;;4972144;28;20538;-74
2023/04/26 12:12:47;;;;;;;15.40;14.37;;;23.00;48.30;;;;;;4971545;28;20456;-73
2023/04/26 12:15:14;;;;;;;16.00;15.00;;;24.10;47.10;;;;;;4971301;28;20456;-74
2023/04/26 12:17:51;;;;;;;15.80;14.90;;;24.00;45.60;;;;;;4971004;28;20494;-74
2023/04/26 12:20:18;;;;;;;16.70;15.97;;;25.00;45.30;;;;;;4971563;28;20451;-73
2023/04/26 12:22:57;;;;;;;14.80;14.10;;;24.40;43.80;;;;;;4971127;28;20483;-72
2023/04/26 12:25:25;;;;;;;15.87;15.17;;;25.00;43.40;;;;;;4971336;28;20460;-72
2023/04/26 12:27:53;;;;;;;15.63;14.10;;;23.60;44.50;;;;;;4971038;28;20510;-72
2023/04/26 12:30:20;;;;;;;15.63;14.60;;;23.70;45.20;;;;;;4971320;28;20562;-72
2023/04/26 12:32:47;;;;;;;13.60;12.70;;;23.10;45.10;;;;;;4970153;28;20490;-72
2023/04/26 12:35:14;;;;;;;15.17;14.47;;;23.30;46.20;;;;;;4970726;28;20486;-74
2023/04/26 12:37:40;;;;;;;15.63;14.43;;;22.50;46.00;;;;;;4970822;28;20527;-72
2023/04/26 12:40:09;;;;;;;15.93;15.10;;;22.90;46.50;;;;;;4971145;28;20464;-73
2023/04/26 12:42:37;;;;;;;16.67;15.80;;;23.10;45.30;;;;;;4970980;28;20447;-73
2023/04/26 12:45:04;;;;;;;14.87;13.97;;;22.00;45.80;;;;;;4970932;28;20820;-72
2023/04/26 12:47:31;;;;;;;14.33;13.63;;;21.10;47.50;;;;;;4970906;28;20456;-73
2023/04/26 12:49:59;;;;;;;15.10;14.33;;;20.20;48.30;;;;;;4970539;28;20487;-73
2023/04/26 12:52:26;;;;;;;15.73;14.70;;;19.10;49.10;;;;;;4970502;28;20559;-72
2023/04/26 12:54:53;;;;;;;15.80;14.33;;;19.10;50.50;;;;;;4970515;28;20786;-72
2023/04/26 12:57:20;;;;;;;14.60;13.80;;;19.80;50.50;;;;;;4970601;28;20491;-72
2023/04/26 12:59:48;;;;;;;15.07;14.37;;;20.30;50.40;;;;;;4970533;28;20546;-72
2023/04/26 13:02:15;;;;;;;14.97;14.07;;;20.60;49.70;;;;;;4970427;28;20455;-72
2023/04/26 13:04:42;;;;;;;14.87;14.07;;;21.10;48.00;;;;;;4970324;28;21269;-72
2023/04/26 13:07:09;;;;;;;15.97;13.97;;;21.20;47.80;;;;;;4970393;28;20475;-73
2023/04/26 13:09:35;;;;;;;14.67;13.67;;;20.10;48.00;;;;;;4971347;28;20510;-72
2023/04/26 13:12:02;;;;;;;15.20;14.40;;;19.50;49.30;;;;;;4970345;28;20448;-73
2023/04/26 13:14:29;;;;;;;16.07;15.17;;;19.40;49.30;;;;;;4970247;28;20482;-72
2023/04/26 13:16:57;;;;;;;15.13;14.30;;;19.10;50.20;;;;;;4970261;28;20483;-73
2023/04/26 13:19:24;;;;;;;15.30;14.13;;;19.10;50.30;;;;;;4970353;28;20456;-73
2023/04/26 13:21:52;;;;;;;14.23;13.43;;;19.10;51.30;;;;;;4970573;28;20502;-73
2023/04/26 13:24:18;;;;;;;15.87;15.20;;;19.20;50.50;;;;;;4970692;28;20460;-73
2023/04/26 13:26:46;;;;;;;15.10;14.07;;;19.70;50.50;;;;;;4970557;28;20747;-73
2023/04/26 13:29:12;;;;;;;13.30;12.80;;;21.30;49.50;;;;;;4970511;28;20820;-74
2023/04/26 13:31:39;;;;;;;14.73;13.87;;;22.40;46.80;;;;;;4970341;28;20829;-73
2023/04/26 13:34:08;;;;;;;14.07;13.00;;;22.60;45.90;;;;;;4970024;28;20472;-74
2023/04/26 13:36:35;;;;;;;15.40;14.60;;;22.90;45.40;;;;;;4970770;28;20515;-73
2023/04/26 13:39:03;;;;;;;15.97;15.07;;;22.90;45.60;;;;;;4970625;28;20495;-73
2023/04/26 13:41:32;;;;;;;14.83;14.00;;;22.50;45.70;;;;;;4970165;28;21079;-74
2023/04/26 13:43:59;;;;;;;15.60;14.53;;;20.60;47.00;;;;;;4970001;28;20550;-73
2023/04/26 13:46:25;;;;;;;13.43;12.20;;;19.60;48.60;;;;;;4970259;28;20974;-73
2023/04/26 13:48:52;;;;;;;14.00;13.30;;;19.70;49.70;;;;;;4970565;28;20455;-73
2023/04/26 13:51:20;;;;;;;13.13;12.40;;;20.40;50.40;;;;;;4970822;28;20614;-73
2023/04/26 13:53:47;;;;;;;13.20;12.47;;;21.30;47.70;;;;;;4970605;28;20802;-75
2023/04/26 13:56:14;;;;;;;14.47;13.83;;;21.90;47.50;;;;;;4970383;28;20565;-74
2023/04/26 13:58:42;;;;;;;15.07;14.13;;;21.40;46.70;;;;;;4970043;28;20606;-74
2023/04/26 14:01:09;;;;;;;13.60;12.90;;;20.90;47.30;;;;;;4970351;28;21001;-74
2023/04/26 14:03:36;;;;;;;14.10;13.33;;;21.30;47.30;;;;;;4970357;28;20542;-74
2023/04/26 14:06:02;;;;;;;13.20;12.50;;;21.40;47.00;;;;;;4970234;28;20462;-73
2023/04/26 14:08:30;;;;;;;13.40;12.60;;;21.70;47.20;;;;;;4969721;28;20456;-74
2023/04/26 14:10:57;;;;;;;14.50;13.60;;;22.00;47.60;;;;;;4975103;28;20456;-84
2023/04/26 14:13:24;;;;;;;14.53;13.70;;;22.00;47.80;;;;;;4973034;28;20796;-83
2023/04/26 14:15:50;;;;;;;14.40;13.60;;;21.60;47.50;;;;;;4971529;28;20816;-81
2023/04/26 14:18:17;;;;;;;13.73;13.03;;;21.40;47.80;;;;;;4971061;28;20448;-80
2023/04/26 19:50:10;;;;;;;11.70;10.60;;;11.40;93.80;;;;;;5489123;23;20757;-74
2023/04/26 19:52:36;;;;;;;13.43;10.57;;;11.30;93.80;;;;;;4969620;28;20452;-75
2023/04/26 19:55:04;;;;;;;10.93;10.13;;;11.40;93.70;;;;;;4985003;28;20454;-76
2023/04/26 19:57:31;;;;;;;11.87;10.97;;;11.40;93.80;;;;;;4979467;28;20530;-76
2023/04/26 19:59:57;;;;;;;12.10;11.20;;;11.40;93.80;;;;;;4971553;28;20863;-75
2023/04/26 20:02:24;;;;;;;10.17;9.47;;;11.40;94.10;;;;;;4970771;28;20455;-74
2023/04/26 20:04:51;;;;;;;11.80;10.90;;;11.40;93.80;;;;;;4971159;28;20837;-75
2023/04/26 20:07:20;;;;;;;12.20;11.37;;;11.40;93.70;;;;;;4957103;28;20460;-76
2023/04/26 20:09:47;;;;;;;9.87;8.90;;;11.50;93.30;;;;;;4966492;28;20542;-75
2023/04/26 20:12:13;;;;;;;9.80;9.10;;;11.50;93.40;;;;;;4959780;28;20447;-76
2023/04/26 20:14:40;;;;;;;11.60;10.90;;;11.50;93.30;;;;;;4962711;28;20443;-77
2023/04/26 20:17:07;;;;;;;11.20;10.30;;;11.60;93.20;;;;;;4959977;28;20608;-79
2023/04/26 20:19:34;;;;;;;12.77;11.97;;;11.50;93.60;;;;;;4967964;28;20456;-77
2023/04/26 20:22:01;;;;;;;10.37;9.73;;;11.40;94.60;;;;;;4963135;28;20464;-77
2023/04/26 20:24:29;;;;;;;10.83;9.97;;;11.40;96.00;;;;;;4958965;28;20452;-76
2023/04/26 20:26:56;;;;;;;11.37;10.37;;;11.40;96.50;;;;;;4961006;28;20518;-76
2023/04/26 20:29:23;;;;;;;12.87;11.70;;;11.30;97.50;;;;;;4962054;28;20452;-75
2023/04/26 20:31:49;;;;;;;12.50;11.60;;;11.30;98.00;;;;;;4962167;28;20447;-75